createdAt,value
2022-08-27T00:00:32.366Z,87.70
2022-08-27T00:02:59.209Z,88.31
2022-08-27T00:05:25.802Z,88.14
2022-08-27T00:07:52.316Z,86.50
2022-08-27T00:10:21.386Z,87.25
2022-08-27T00:12:48.401Z,89.26
2022-08-27T00:15:17.842Z,90.19
2022-08-27T00:17:45.682Z,89.30
2022-08-27T00:20:13.731Z,89.42
2022-08-27T00:22:40.238Z,89.49
2022-08-27T00:25:07.256Z,92.04
2022-08-27T00:27:33.805Z,91.62
2022-08-27T00:30:00.379Z,90.32
2022-08-27T00:32:26.967Z,90.68
2022-08-27T00:34:53.440Z,92.19
2022-08-27T00:37:20.257Z,93.62
2022-08-27T00:39:46.850Z,94.10
2022-08-27T00:42:13.429Z,93.57
2022-08-27T00:44:39.987Z,93.68
2022-08-27T00:47:07.750Z,92.19
2022-08-27T00:49:43.698Z,92.11
2022-08-27T00:52:17.182Z,90.98
2022-08-27T00:54:44.034Z,89.68
2022-08-27T00:57:10.596Z,90.35
2022-08-27T00:59:37.240Z,90.98
2022-08-27T01:02:19.270Z,91.66
2022-08-27T01:04:48.703Z,90.92
2022-08-27T01:07:15.362Z,89.93
2022-08-27T01:09:42.974Z,91.42
2022-08-27T01:12:11.209Z,91.05
2022-08-27T01:14:38.655Z,92.15
2022-08-27T01:17:08.934Z,90.78
2022-08-27T01:19:45.221Z,91.17
2022-08-27T01:22:20.400Z,92.15
2022-08-27T01:24:50.619Z,93.27
2022-08-27T01:27:18.531Z,93.12
2022-08-27T01:29:45.412Z,93.36
2022-08-27T01:32:31.947Z,93.20
2022-08-27T01:34:59.153Z,94.52
2022-08-27T01:37:26.155Z,93.77
2022-08-27T01:39:55.095Z,95.21
2022-08-27T01:42:27.845Z,94.55
2022-08-27T01:44:55.884Z,93.86
2022-08-27T01:47:23.844Z,94.42
2022-08-27T01:49:57.798Z,95.05
2022-08-27T01:52:26.238Z,93.96
2022-08-27T01:54:52.829Z,92.87
2022-08-27T01:57:24.055Z,93.41
2022-08-27T01:59:52.583Z,94.13
2022-08-27T02:02:19.769Z,95.24
2022-08-27T02:04:46.305Z,94.56
2022-08-27T02:07:12.890Z,95.70
2022-08-27T02:09:39.478Z,95.39
2022-08-27T02:12:06.319Z,94.83
2022-08-27T02:14:32.862Z,94.17
2022-08-27T02:16:59.638Z,95.97
2022-08-27T02:19:27.291Z,95.40
2022-08-27T02:21:54.528Z,95.05
2022-08-27T02:24:21.240Z,93.42
2022-08-27T02:26:47.714Z,93.49
2022-08-27T02:29:14.397Z,93.47
2022-08-27T02:31:42.121Z,95.19
2022-08-27T02:34:09.737Z,95.04
2022-08-27T02:36:37.422Z,96.07
2022-08-27T02:39:05.583Z,97.17
2022-08-27T02:41:32.230Z,96.39
2022-08-27T02:43:58.898Z,95.28
2022-08-27T02:46:28.935Z,94.42
2022-08-27T02:48:55.941Z,95.52
2022-08-27T02:51:22.746Z,96.15
2022-08-27T02:53:50.320Z,96.40
2022-08-27T02:56:17.339Z,95.71
2022-08-27T02:58:48.349Z,96.19
2022-08-27T03:01:15.524Z,97.38
2022-08-27T03:03:42.201Z,96.86
2022-08-27T03:06:08.815Z,96.83
2022-08-27T03:08:38.005Z,97.11
2022-08-27T03:11:19.774Z,96.69
2022-08-27T03:13:46.330Z,95.45
2022-08-27T03:16:12.911Z,95.36
2022-08-27T03:18:39.922Z,96.68
2022-08-27T03:21:08.160Z,96.04
2022-08-27T03:23:35.227Z,95.29
2022-08-27T03:26:03.647Z,96.96
2022-08-27T03:28:32.940Z,96.92
2022-08-27T03:31:01.322Z,98.64
2022-08-27T03:33:32.850Z,97.68
2022-08-27T03:35:59.669Z,98.19
2022-08-27T03:38:26.524Z,95.91
2022-08-27T03:40:53.554Z,95.08
2022-08-27T03:43:21.017Z,94.85
2022-08-27T03:46:00.413Z,94.84
2022-08-27T03:48:29.055Z,95.51
2022-08-27T03:50:55.606Z,96.08
2022-08-27T03:53:22.153Z,97.28
2022-08-27T03:55:48.863Z,95.38
2022-08-27T03:58:16.027Z,95.27
2022-08-27T04:00:42.657Z,94.84
2022-08-27T04:03:12.307Z,95.04
2022-08-27T04:05:38.818Z,95.32
2022-08-27T04:08:06.754Z,94.76
2022-08-27T04:10:34.959Z,95.14
2022-08-27T04:13:01.941Z,94.27
2022-08-27T04:15:28.438Z,96.22
2022-08-27T04:17:54.949Z,98.00
2022-08-27T04:20:36.715Z,97.08
2022-08-27T04:23:03.675Z,96.40
2022-08-27T04:25:30.280Z,96.47
2022-08-27T04:27:57.069Z,96.99
2022-08-27T04:30:23.653Z,97.29
2022-08-27T04:32:50.645Z,96.91
2022-08-27T04:35:17.364Z,96.21
2022-08-27T04:37:43.890Z,96.15
2022-08-27T04:40:10.779Z,96.44
2022-08-27T04:42:37.622Z,96.42
2022-08-27T04:45:04.682Z,97.97
2022-08-27T04:47:31.206Z,98.50
2022-08-27T04:49:57.898Z,97.81
2022-08-27T04:52:24.762Z,96.64
2022-08-27T04:54:51.933Z,93.08
2022-08-27T04:57:18.833Z,94.27
2022-08-27T04:59:45.522Z,94.80
2022-08-27T05:02:12.324Z,94.50
2022-08-27T05:04:40.254Z,94.61
2022-08-27T05:07:07.905Z,94.67
2022-08-27T05:09:34.807Z,95.25
2022-08-27T05:12:01.754Z,94.30
2022-08-27T05:14:32.718Z,94.08
2022-08-27T05:16:59.598Z,95.21
2022-08-27T05:19:26.622Z,94.52
2022-08-27T05:21:53.909Z,92.90
2022-08-27T05:24:21.407Z,92.19
2022-08-27T05:26:48.326Z,91.66
2022-08-27T05:29:15.386Z,91.60
2022-08-27T05:31:42.596Z,91.82
2022-08-27T05:34:10.564Z,90.20
2022-08-27T05:36:47.734Z,89.89
2022-08-27T05:39:15.254Z,91.09
2022-08-27T05:41:41.755Z,89.20
2022-08-27T05:44:36.839Z,87.91
2022-08-27T05:46:55.914Z,86.98
2022-08-27T05:49:22.387Z,85.25
2022-08-27T05:51:48.858Z,84.34
2022-08-27T05:54:19.747Z,83.73
2022-08-27T05:56:47.392Z,82.26
2022-08-27T05:59:34.518Z,82.87
2022-08-27T06:02:02.151Z,81.31
2022-08-27T06:04:28.761Z,81.39
2022-08-27T06:06:55.313Z,81.34
2022-08-27T06:09:23.399Z,82.61
2022-08-27T06:11:50.005Z,83.08
2022-08-27T06:14:16.739Z,80.82
2022-08-27T06:16:43.276Z,79.49
2022-08-27T06:19:12.073Z,74.64
2022-08-27T06:21:39.967Z,72.80
2022-08-27T06:24:06.722Z,70.90
2022-08-27T06:26:33.261Z,68.74
2022-08-27T06:29:06.557Z,69.44
2022-08-27T06:31:35.081Z,67.42
2022-08-27T06:34:02.834Z,65.21
2022-08-27T06:36:30.181Z,64.23
2022-08-27T06:38:57.642Z,63.28
2022-08-27T06:41:26.664Z,65.09
2022-08-27T06:43:54.083Z,62.09
2022-08-27T06:46:22.180Z,60.28
2022-08-27T06:48:52.065Z,63.09
2022-08-27T06:51:20.123Z,62.22
2022-08-27T06:53:47.414Z,60.21
2022-08-27T06:56:14.910Z,59.68
2022-08-27T06:58:42.119Z,59.85
2022-08-27T07:01:13.350Z,60.66
2022-08-27T07:03:40.055Z,57.59
2022-08-27T07:06:07.532Z,56.64
2022-08-27T07:08:34.085Z,61.16
2022-08-27T07:11:00.706Z,59.60
2022-08-27T07:13:28.757Z,57.10
2022-08-27T07:15:56.131Z,59.32
2022-08-27T07:18:23.984Z,56.95
2022-08-27T07:20:54.778Z,58.45
2022-08-27T07:23:21.702Z,56.91
2022-08-27T07:25:48.618Z,53.00
2022-08-27T07:28:15.194Z,53.75
2022-08-27T07:30:41.789Z,54.42
2022-08-27T07:33:08.911Z,52.93
2022-08-27T07:35:35.486Z,49.66
2022-08-27T07:38:02.053Z,49.21
2022-08-27T07:40:28.689Z,52.09
2022-08-27T07:43:14.816Z,48.95
2022-08-27T07:45:45.954Z,46.08
2022-08-27T07:48:12.859Z,47.35
2022-08-27T07:50:39.561Z,45.53
2022-08-27T07:53:07.463Z,44.71
2022-08-27T07:55:36.086Z,44.87
2022-08-27T07:58:02.977Z,43.90
2022-08-27T08:00:29.553Z,44.99
2022-08-27T08:02:56.086Z,43.00
2022-08-27T08:05:24.493Z,43.26
2022-08-27T08:07:51.967Z,42.82
2022-08-27T08:10:19.827Z,43.18
2022-08-27T08:12:46.470Z,43.30
2022-08-27T08:15:13.022Z,44.21
2022-08-27T08:17:40.379Z,43.84
2022-08-27T08:20:21.758Z,42.54
2022-08-27T08:22:53.899Z,42.40
2022-08-27T08:25:20.462Z,42.26
2022-08-27T08:27:48.084Z,44.23
2022-08-27T08:30:15.174Z,42.25
2022-08-27T08:32:43.287Z,43.41
2022-08-27T08:35:10.015Z,44.59
2022-08-27T08:37:36.558Z,44.00
2022-08-27T08:40:03.651Z,44.18
2022-08-27T08:42:36.967Z,43.80
2022-08-27T08:45:04.990Z,42.31
2022-08-27T08:47:35.263Z,43.59
2022-08-27T08:50:06.023Z,43.16
2022-08-27T08:52:40.456Z,41.47
2022-08-27T08:55:13.406Z,43.26
2022-08-27T08:57:47.478Z,43.23
2022-08-27T09:00:14.215Z,40.99
2022-08-27T09:02:45.601Z,40.16
2022-08-27T09:05:12.483Z,41.53
2022-08-27T09:07:45.736Z,44.72
2022-08-27T09:10:26.051Z,43.92
2022-08-27T09:12:55.837Z,42.57
2022-08-27T09:15:23.422Z,42.90
2022-08-27T09:17:50.665Z,42.16
2022-08-27T09:20:18.918Z,41.96
2022-08-27T09:22:57.350Z,42.51
2022-08-27T09:25:25.844Z,42.61
2022-08-27T09:27:54.733Z,42.51
2022-08-27T09:30:30.000Z,41.14
2022-08-27T09:32:58.637Z,43.50
2022-08-27T09:35:26.946Z,40.39
2022-08-27T09:37:54.726Z,40.37
2022-08-27T09:40:39.937Z,41.32
2022-08-27T09:43:28.267Z,40.21
2022-08-27T09:45:56.798Z,40.60
2022-08-27T09:48:26.550Z,40.99
2022-08-27T09:50:57.238Z,41.04
2022-08-27T09:53:26.217Z,41.14
2022-08-27T09:56:04.255Z,39.73
2022-08-27T09:58:33.541Z,41.35
2022-08-27T10:01:02.019Z,40.64
2022-08-27T10:03:32.705Z,42.19
2022-08-27T10:06:00.497Z,36.69
2022-08-27T10:08:28.281Z,35.37
2022-08-27T10:10:59.669Z,35.42
2022-08-27T10:13:28.850Z,35.33
2022-08-27T10:16:01.091Z,36.61
2022-08-27T10:18:27.882Z,36.42
2022-08-27T10:20:54.525Z,37.23
2022-08-27T10:23:34.714Z,35.65
2022-08-27T10:26:08.017Z,39.23
2022-08-27T10:28:53.316Z,40.60
2022-08-27T10:31:38.975Z,38.29
2022-08-27T10:34:12.304Z,37.74
2022-08-27T10:36:57.909Z,40.20
2022-08-27T10:39:34.989Z,39.10
2022-08-27T10:42:10.810Z,38.87
2022-08-27T10:44:40.367Z,38.18
2022-08-27T10:47:29.920Z,37.36
2022-08-27T10:50:05.403Z,36.61
2022-08-27T10:52:37.131Z,36.58
2022-08-27T10:55:12.744Z,36.90
2022-08-27T10:58:01.018Z,37.20
2022-08-27T11:00:38.006Z,37.39
2022-08-27T11:03:07.103Z,37.31
2022-08-27T11:05:51.896Z,37.27
2022-08-27T11:08:24.753Z,40.31
2022-08-27T11:10:56.864Z,41.84
2022-08-27T11:13:40.591Z,42.37
2022-08-27T11:16:12.244Z,45.67
2022-08-27T11:18:47.215Z,46.84
2022-08-27T11:21:19.828Z,48.97
2022-08-27T11:23:50.046Z,46.57
2022-08-27T11:26:16.751Z,45.78
2022-08-27T11:28:49.858Z,43.69
2022-08-27T11:31:17.058Z,45.54
2022-08-27T11:33:58.187Z,45.85
2022-08-27T11:36:43.049Z,47.16
2022-08-27T11:39:27.697Z,47.25
2022-08-27T11:41:54.191Z,44.84
2022-08-27T11:44:22.601Z,46.92
2022-08-27T11:46:52.055Z,43.76
2022-08-27T11:49:24.107Z,40.27
2022-08-27T11:51:57.113Z,40.22
2022-08-27T11:54:27.054Z,38.20
2022-08-27T11:56:53.610Z,35.20
2022-08-27T11:59:26.478Z,34.14
2022-08-27T12:01:54.745Z,35.06
2022-08-27T12:04:30.703Z,35.76
2022-08-27T12:07:06.477Z,32.75
2022-08-27T12:09:48.023Z,33.19
2022-08-27T12:12:20.466Z,33.13
2022-08-27T12:14:54.812Z,33.21
2022-08-27T12:17:26.341Z,36.00
2022-08-27T12:19:56.883Z,33.89
2022-08-27T12:23:07.050Z,35.74
2022-08-27T12:25:33.838Z,37.66
2022-08-27T12:28:04.905Z,37.30
2022-08-27T12:30:31.462Z,35.86
2022-08-27T12:32:59.883Z,36.40
2022-08-27T12:35:31.486Z,39.26
2022-08-27T12:38:11.926Z,43.69
2022-08-27T12:40:41.738Z,43.49
2022-08-27T12:43:12.884Z,48.44
2022-08-27T12:45:45.487Z,48.26
2022-08-27T12:48:12.217Z,47.14
2022-08-27T12:50:39.034Z,47.67
2022-08-27T12:53:05.545Z,47.69
2022-08-27T12:55:39.920Z,46.07
2022-08-27T12:58:23.977Z,46.52
2022-08-27T13:01:05.955Z,45.95
2022-08-27T13:03:44.115Z,50.64
2022-08-27T13:06:27.340Z,50.36
2022-08-27T13:08:54.844Z,53.12
2022-08-27T13:11:23.359Z,54.09
2022-08-27T13:13:50.726Z,52.91
2022-08-27T13:16:18.510Z,51.96
2022-08-27T13:18:51.435Z,51.34
2022-08-27T13:21:20.971Z,51.07
2022-08-27T13:23:56.018Z,52.82
2022-08-27T13:26:24.459Z,50.18
2022-08-27T13:28:52.576Z,50.97
2022-08-27T13:31:21.118Z,49.19
2022-08-27T13:33:47.715Z,47.09
2022-08-27T13:36:14.380Z,49.25
2022-08-27T13:38:47.901Z,49.69
2022-08-27T13:41:25.400Z,48.72
2022-08-27T13:43:55.809Z,48.95
2022-08-27T13:46:27.739Z,48.96
2022-08-27T13:48:55.798Z,49.12
2022-08-27T13:51:28.194Z,49.05
2022-08-27T13:54:12.920Z,49.97
2022-08-27T13:56:49.083Z,48.99
2022-08-27T13:59:24.074Z,50.01
2022-08-27T14:01:55.957Z,51.65
2022-08-27T14:04:24.462Z,51.26
2022-08-27T14:06:51.421Z,51.53
2022-08-27T14:09:22.181Z,48.62
2022-08-27T14:11:49.071Z,49.84
2022-08-27T14:14:16.854Z,49.95
2022-08-27T14:16:43.446Z,50.92
2022-08-27T14:19:11.658Z,52.31
2022-08-27T14:21:40.301Z,49.99
2022-08-27T14:24:07.646Z,49.00
2022-08-27T14:26:34.202Z,49.20
2022-08-27T14:29:01.047Z,49.89
2022-08-27T14:31:28.234Z,51.82
2022-08-27T14:33:54.833Z,52.24
2022-08-27T14:36:22.623Z,54.60
2022-08-27T14:38:50.342Z,53.67
2022-08-27T14:41:18.907Z,54.18
2022-08-27T14:43:49.058Z,54.39
2022-08-27T14:46:41.592Z,55.49
2022-08-27T14:49:13.206Z,55.20
2022-08-27T14:51:42.662Z,55.27
2022-08-27T14:54:09.335Z,57.64
2022-08-27T14:56:35.840Z,56.00
2022-08-27T14:59:02.405Z,54.98
2022-08-27T15:01:29.411Z,54.60
2022-08-27T15:03:56.764Z,55.05
2022-08-27T15:06:23.866Z,53.33
2022-08-27T15:08:51.065Z,52.37
2022-08-27T15:11:25.307Z,53.96
2022-08-27T15:13:52.705Z,54.08
2022-08-27T15:16:29.732Z,55.28
2022-08-27T15:19:01.235Z,56.91
2022-08-27T15:21:28.837Z,59.55
2022-08-27T15:23:58.285Z,60.86
2022-08-27T15:26:24.897Z,61.87
2022-08-27T15:28:51.447Z,58.75
2022-08-27T15:31:18.839Z,58.76
2022-08-27T15:33:45.622Z,60.03
2022-08-27T15:36:12.916Z,61.02
2022-08-27T15:38:39.854Z,62.13
2022-08-27T15:41:06.694Z,62.28
2022-08-27T15:43:33.389Z,62.36
2022-08-27T15:45:59.920Z,63.48
2022-08-27T15:48:26.499Z,66.33
2022-08-27T15:50:53.130Z,67.54
2022-08-27T15:53:21.869Z,69.99
2022-08-27T15:55:48.567Z,71.31
2022-08-27T15:58:15.026Z,69.45
2022-08-27T16:00:42.058Z,71.91
2022-08-27T16:03:11.569Z,73.83
2022-08-27T16:05:38.946Z,75.73
2022-08-27T16:08:06.029Z,73.53
2022-08-27T16:10:32.904Z,77.38
2022-08-27T16:12:59.439Z,78.70
2022-08-27T16:15:25.937Z,82.67
2022-08-27T16:17:54.649Z,83.75
2022-08-27T16:20:21.402Z,86.25
2022-08-27T16:22:48.383Z,86.63
2022-08-27T16:25:18.514Z,86.89
2022-08-27T16:27:47.505Z,87.99
2022-08-27T16:30:14.356Z,89.10
2022-08-27T16:32:41.230Z,91.01
2022-08-27T16:35:08.862Z,91.59
2022-08-27T16:37:35.609Z,93.30
2022-08-27T16:40:02.238Z,92.58
2022-08-27T16:42:28.817Z,94.01
2022-08-27T16:44:55.353Z,94.51
2022-08-27T16:47:21.806Z,95.47
2022-08-27T16:50:07.322Z,87.97
2022-08-27T16:52:34.197Z,86.32
2022-08-27T16:55:00.767Z,92.56
2022-08-27T16:57:27.297Z,91.70
2022-08-27T16:59:55.021Z,91.48
2022-08-27T17:02:32.420Z,93.46
2022-08-27T17:05:07.331Z,95.35
2022-08-27T17:07:44.123Z,99.46
2022-08-27T17:10:15.462Z,100.00
2022-08-27T17:12:42.688Z,100.00
2022-08-27T17:15:09.686Z,100.00
2022-08-27T17:17:38.778Z,100.00
2022-08-27T17:20:06.422Z,100.00
2022-08-27T17:22:34.900Z,100.00
2022-08-27T17:25:01.490Z,100.00
2022-08-27T17:27:28.002Z,100.00
2022-08-27T17:29:54.645Z,100.00
2022-08-27T17:32:21.185Z,100.00
2022-08-27T17:34:47.771Z,100.00
2022-08-27T17:37:14.450Z,100.00
2022-08-27T17:39:42.105Z,100.00
2022-08-27T17:42:09.339Z,100.00
2022-08-27T17:44:37.001Z,98.88
2022-08-27T17:47:05.363Z,100.00
2022-08-27T17:49:32.417Z,94.73
2022-08-27T17:52:00.962Z,96.85
2022-08-27T17:54:27.459Z,100.00
2022-08-27T17:56:54.334Z,100.00
2022-08-27T17:59:20.873Z,100.00
2022-08-27T18:01:50.254Z,98.88
2022-08-27T18:04:19.964Z,100.00
2022-08-27T18:06:49.448Z,100.00
2022-08-27T18:09:19.194Z,100.00
2022-08-27T18:11:46.658Z,100.00
2022-08-27T18:14:13.545Z,100.00
2022-08-27T18:16:45.113Z,100.00
2022-08-27T18:19:11.643Z,100.00
2022-08-27T18:21:46.500Z,100.00
2022-08-27T18:24:14.070Z,100.00
2022-08-27T18:26:40.573Z,100.00
2022-08-27T18:29:07.240Z,100.00
2022-08-27T18:31:33.798Z,100.00
2022-08-27T18:34:00.659Z,100.00
2022-08-27T18:36:27.486Z,100.00
2022-08-27T18:38:54.066Z,100.00
2022-08-27T18:41:20.698Z,100.00
2022-08-27T18:43:47.500Z,100.00
2022-08-27T18:46:14.199Z,100.00
2022-08-27T18:48:40.869Z,100.00
2022-08-27T18:51:09.129Z,100.00
2022-08-27T18:53:36.327Z,100.00
2022-08-27T18:56:04.286Z,100.00
2022-08-27T18:58:31.041Z,100.00
2022-08-27T19:00:59.374Z,100.00
2022-08-27T19:03:33.446Z,100.00
2022-08-27T19:06:00.757Z,100.00
2022-08-27T19:08:28.121Z,100.00
2022-08-27T19:10:55.616Z,100.00
2022-08-27T19:13:22.390Z,100.00
2022-08-27T19:15:54.582Z,100.00
2022-08-27T19:18:22.468Z,100.00
2022-08-27T19:20:48.930Z,100.00
2022-08-27T19:23:15.578Z,100.00
2022-08-27T19:25:48.914Z,100.00
2022-08-27T19:28:17.479Z,100.00
2022-08-27T19:30:44.361Z,100.00
2022-08-27T19:33:11.106Z,100.00
2022-08-27T19:35:39.077Z,100.00
2022-08-27T19:38:05.690Z,100.00
2022-08-27T19:40:35.358Z,100.00
2022-08-27T19:43:01.991Z,100.00
2022-08-27T19:45:28.710Z,100.00
2022-08-27T19:47:55.306Z,100.00
2022-08-27T19:50:22.410Z,100.00
2022-08-27T19:52:49.605Z,100.00
2022-08-27T19:55:16.242Z,100.00
2022-08-27T19:57:43.657Z,100.00
2022-08-27T20:00:11.965Z,100.00
2022-08-27T20:02:38.558Z,100.00
2022-08-27T20:05:21.584Z,100.00
2022-08-27T20:07:49.832Z,100.00
2022-08-27T20:10:17.370Z,100.00
2022-08-27T20:12:44.668Z,100.00
2022-08-27T20:15:11.416Z,100.00
2022-08-27T20:17:39.131Z,100.00
2022-08-27T20:20:06.483Z,100.00
2022-08-27T20:22:32.986Z,100.00
2022-08-27T20:24:59.537Z,100.00
2022-08-27T20:27:26.034Z,100.00
2022-08-27T20:29:54.832Z,100.00
2022-08-27T20:32:22.783Z,100.00
2022-08-27T20:34:50.661Z,100.00
2022-08-27T20:37:17.531Z,100.00
2022-08-27T20:39:44.384Z,100.00
2022-08-27T20:42:11.185Z,100.00
2022-08-27T20:44:38.580Z,100.00
2022-08-27T20:47:05.419Z,100.00
2022-08-27T20:49:32.421Z,100.00
2022-08-27T20:52:03.042Z,100.00
2022-08-27T20:54:31.583Z,100.00
2022-08-27T20:56:58.327Z,100.00
2022-08-27T20:59:43.802Z,100.00
2022-08-27T21:02:11.668Z,100.00
2022-08-27T21:04:43.358Z,100.00
2022-08-27T21:07:09.853Z,100.00
2022-08-27T21:09:36.417Z,100.00
2022-08-27T21:12:22.890Z,100.00
2022-08-27T21:14:50.093Z,100.00
2022-08-27T21:17:21.483Z,100.00
2022-08-27T21:19:47.951Z,100.00
2022-08-27T21:22:14.458Z,100.00
2022-08-27T21:24:42.055Z,100.00
2022-08-27T21:27:08.557Z,100.00
2022-08-27T21:29:36.780Z,100.00
2022-08-27T21:32:03.456Z,100.00
2022-08-27T21:34:31.030Z,100.00
2022-08-27T21:36:57.971Z,100.00
2022-08-27T21:39:24.490Z,100.00
2022-08-27T21:41:51.014Z,100.00
2022-08-27T21:44:17.497Z,100.00
2022-08-27T21:46:44.016Z,100.00
2022-08-27T21:49:10.598Z,100.00
2022-08-27T21:51:37.142Z,100.00
2022-08-27T21:54:03.700Z,100.00
2022-08-27T21:56:31.783Z,100.00
2022-08-27T21:58:58.282Z,100.00
2022-08-27T22:01:24.868Z,100.00
2022-08-27T22:03:51.625Z,100.00
2022-08-27T22:06:18.979Z,100.00
2022-08-27T22:08:45.864Z,100.00
2022-08-27T22:11:12.926Z,100.00
2022-08-27T22:13:40.185Z,100.00
2022-08-27T22:16:07.363Z,100.00
2022-08-27T22:18:34.259Z,100.00
2022-08-27T22:21:00.810Z,100.00
2022-08-27T22:23:27.727Z,100.00
2022-08-27T22:25:54.324Z,100.00
2022-08-27T22:28:20.910Z,100.00
2022-08-27T22:30:47.464Z,100.00
2022-08-27T22:33:14.723Z,100.00
2022-08-27T22:35:41.242Z,100.00
2022-08-27T22:38:07.951Z,100.00
2022-08-27T22:40:35.799Z,100.00
2022-08-27T22:43:03.880Z,100.00
2022-08-27T22:45:30.836Z,98.01
2022-08-27T22:47:57.571Z,93.84
2022-08-27T22:50:24.313Z,96.08
2022-08-27T22:52:51.085Z,94.52
2022-08-27T22:55:19.443Z,90.85
2022-08-27T22:57:47.210Z,91.77
2022-08-27T23:00:24.573Z,94.89
2022-08-27T23:02:51.253Z,96.19
2022-08-27T23:05:17.944Z,88.59
2022-08-27T23:07:44.855Z,94.36
2022-08-27T23:10:12.511Z,98.99
2022-08-27T23:12:39.080Z,100.00
2022-08-27T23:15:07.703Z,100.00
2022-08-27T23:17:34.305Z,100.00
2022-08-27T23:20:00.811Z,100.00
2022-08-27T23:22:27.361Z,100.00
2022-08-27T23:25:12.701Z,100.00
2022-08-27T23:27:39.290Z,100.00
2022-08-27T23:30:06.221Z,100.00
2022-08-27T23:32:32.758Z,100.00
2022-08-27T23:34:59.262Z,100.00
2022-08-27T23:37:25.814Z,100.00
2022-08-27T23:39:52.367Z,100.00
2022-08-27T23:42:19.134Z,100.00
2022-08-27T23:44:46.351Z,100.00
2022-08-27T23:47:12.978Z,100.00
2022-08-27T23:49:39.702Z,100.00
2022-08-27T23:52:06.602Z,100.00
2022-08-27T23:54:33.918Z,100.00
2022-08-27T23:57:00.429Z,100.00
2022-08-27T23:59:30.401Z,100.00
